sensor_id;sensor_type;location;lat;lon;timestamp;temperature;humidity
12289;DHT22;6207;49.308;7.336;2022-12-18T00:01:19;-10.20;99.90
12289;DHT22;6207;49.308;7.336;2022-12-18T00:03:47;-10.10;98.30
12289;DHT22;6207;49.308;7.336;2022-12-18T00:06:15;-10.20;96.00
12289;DHT22;6207;49.308;7.336;2022-12-18T00:08:43;-10.20;99.90
12289;DHT22;6207;49.308;7.336;2022-12-18T00:11:12;-9.60;99.90
12289;DHT22;6207;49.308;7.336;2022-12-18T00:13:40;-10.20;99.90
12289;DHT22;6207;49.308;7.336;2022-12-18T00:16:11;-10.20;99.90
12289;DHT22;6207;49.308;7.336;2022-12-18T00:18:38;-10.10;99.90
12289;DHT22;6207;49.308;7.336;2022-12-18T00:21:09;-10.10;99.90
12289;DHT22;6207;49.308;7.336;2022-12-18T00:23:37;-10.10;99.90
12289;DHT22;6207;49.308;7.336;2022-12-18T00:26:08;-10.20;86.60
12289;DHT22;6207;49.308;7.336;2022-12-18T00:28:36;-10.20;61.60
12289;DHT22;6207;49.308;7.336;2022-12-18T00:31:05;-10.20;55.50
12289;DHT22;6207;49.308;7.336;2022-12-18T00:33:34;-10.20;88.20
12289;DHT22;6207;49.308;7.336;2022-12-18T00:36:15;-10.20;97.20
12289;DHT22;6207;49.308;7.336;2022-12-18T00:38:43;-10.50;99.90
12289;DHT22;6207;49.308;7.336;2022-12-18T00:41:11;-10.20;63.80
12289;DHT22;6207;49.308;7.336;2022-12-18T00:43:39;-10.10;81.10
12289;DHT22;6207;49.308;7.336;2022-12-18T00:46:07;-10.10;90.10
12289;DHT22;6207;49.308;7.336;2022-12-18T00:48:35;-10.20;53.60
12289;DHT22;6207;49.308;7.336;2022-12-18T00:51:01;-10.20;49.80
12289;DHT22;6207;49.308;7.336;2022-12-18T00:53:28;-10.20;30.80
12289;DHT22;6207;49.308;7.336;2022-12-18T00:55:55;-9.60;40.00
12289;DHT22;6207;49.308;7.336;2022-12-18T00:58:22;-10.20;28.90
12289;DHT22;6207;49.308;7.336;2022-12-18T01:00:49;-10.20;14.80
12289;DHT22;6207;49.308;7.336;2022-12-18T01:03:16;-10.20;14.10
12289;DHT22;6207;49.308;7.336;2022-12-18T01:05:43;-10.20;25.20
12289;DHT22;6207;49.308;7.336;2022-12-18T01:08:10;-10.20;15.70
12289;DHT22;6207;49.308;7.336;2022-12-18T01:10:40;-10.20;49.00
12289;DHT22;6207;49.308;7.336;2022-12-18T01:13:07;-10.20;72.40
12289;DHT22;6207;49.308;7.336;2022-12-18T01:15:33;-9.90;56.40
12289;DHT22;6207;49.308;7.336;2022-12-18T01:18:00;-10.20;51.80
12289;DHT22;6207;49.308;7.336;2022-12-18T01:20:27;-10.20;47.90
12289;DHT22;6207;49.308;7.336;2022-12-18T01:22:54;-10.10;75.90
12289;DHT22;6207;49.308;7.336;2022-12-18T01:25:21;-10.10;99.90
12289;DHT22;6207;49.308;7.336;2022-12-18T01:27:47;-9.80;44.00
12289;DHT22;6207;49.308;7.336;2022-12-18T01:30:14;-10.10;71.20
12289;DHT22;6207;49.308;7.336;2022-12-18T01:32:41;-9.20;48.90
12289;DHT22;6207;49.308;7.336;2022-12-18T01:35:08;-9.60;65.50
12289;DHT22;6207;49.308;7.336;2022-12-18T01:37:35;-10.20;40.40
12289;DHT22;6207;49.308;7.336;2022-12-18T01:40:02;-10.10;59.50
12289;DHT22;6207;49.308;7.336;2022-12-18T01:42:28;-10.00;92.50
12289;DHT22;6207;49.308;7.336;2022-12-18T01:50:24;-10.00;55.60
12289;DHT22;6207;49.308;7.336;2022-12-18T01:52:58;-10.00;57.50
12289;DHT22;6207;49.308;7.336;2022-12-18T01:55:29;-10.10;38.10
12289;DHT22;6207;49.308;7.336;2022-12-18T01:57:58;-10.10;7.50
12289;DHT22;6207;49.308;7.336;2022-12-18T02:00:27;-10.20;5.80
12289;DHT22;6207;49.308;7.336;2022-12-18T02:02:54;-10.20;1.00
12289;DHT22;6207;49.308;7.336;2022-12-18T02:14:00;-10.20;28.50
12289;DHT22;6207;49.308;7.336;2022-12-18T02:22:09;-10.20;49.70
12289;DHT22;6207;49.308;7.336;2022-12-18T02:24:51;-10.20;34.50
12289;DHT22;6207;49.308;7.336;2022-12-18T02:27:20;-9.60;1.00
12289;DHT22;6207;49.308;7.336;2022-12-18T02:29:50;-10.40;1.00
12289;DHT22;6207;49.308;7.336;2022-12-18T02:32:34;-9.90;1.00
12289;DHT22;6207;49.308;7.336;2022-12-18T02:35:05;-10.50;1.00
12289;DHT22;6207;49.308;7.336;2022-12-18T02:37:34;-10.50;1.00
12289;DHT22;6207;49.308;7.336;2022-12-18T02:40:03;-10.60;1.00
12289;DHT22;6207;49.308;7.336;2022-12-18T02:42:31;-10.60;1.00
12289;DHT22;6207;49.308;7.336;2022-12-18T02:44:58;-10.60;1.00
12289;DHT22;6207;49.308;7.336;2022-12-18T02:47:33;-10.60;1.00
12289;DHT22;6207;49.308;7.336;2022-12-18T02:53:16;-10.70;1.00
12289;DHT22;6207;49.308;7.336;2022-12-18T03:03:57;-10.70;1.00
12289;DHT22;6207;49.308;7.336;2022-12-18T03:06:33;-10.70;1.00
12289;DHT22;6207;49.308;7.336;2022-12-18T03:09:10;-10.10;1.00
12289;DHT22;6207;49.308;7.336;2022-12-18T03:11:41;-10.80;1.00
12289;DHT22;6207;49.308;7.336;2022-12-18T03:14:30;-10.80;1.00
12289;DHT22;6207;49.308;7.336;2022-12-18T03:17:01;-10.80;1.00
12289;DHT22;6207;49.308;7.336;2022-12-18T03:19:32;-10.30;1.00
12289;DHT22;6207;49.308;7.336;2022-12-18T03:22:02;-10.10;1.00
12289;DHT22;6207;49.308;7.336;2022-12-18T03:24:31;-10.80;1.00
12289;DHT22;6207;49.308;7.336;2022-12-18T03:27:06;-10.90;1.00
12289;DHT22;6207;49.308;7.336;2022-12-18T03:29:50;-10.90;1.00
12289;DHT22;6207;49.308;7.336;2022-12-18T03:32:25;-11.10;1.00
12289;DHT22;6207;49.308;7.336;2022-12-18T03:34:55;-11.00;1.00
12289;DHT22;6207;49.308;7.336;2022-12-18T03:37:24;-10.90;1.00
12289;DHT22;6207;49.308;7.336;2022-12-18T03:39:51;-10.90;1.00
12289;DHT22;6207;49.308;7.336;2022-12-18T03:42:25;-10.90;1.00
12289;DHT22;6207;49.308;7.336;2022-12-18T03:50:18;-11.00;1.00
12289;DHT22;6207;49.308;7.336;2022-12-18T03:55:31;-11.00;1.00
12289;DHT22;6207;49.308;7.336;2022-12-18T03:58:00;-11.10;1.00
12289;DHT22;6207;49.308;7.336;2022-12-18T04:00:28;-11.00;1.00
12289;DHT22;6207;49.308;7.336;2022-12-18T04:02:57;-11.10;1.00
12289;DHT22;6207;49.308;7.336;2022-12-18T04:05:26;-11.10;1.00
12289;DHT22;6207;49.308;7.336;2022-12-18T04:07:56;-10.60;1.00
12289;DHT22;6207;49.308;7.336;2022-12-18T04:10:23;-11.20;1.00
12289;DHT22;6207;49.308;7.336;2022-12-18T04:12:49;-11.20;1.00
12289;DHT22;6207;49.308;7.336;2022-12-18T04:15:16;-10.60;1.00
12289;DHT22;6207;49.308;7.336;2022-12-18T04:17:48;-11.20;1.00
12289;DHT22;6207;49.308;7.336;2022-12-18T04:20:15;-10.50;1.00
12289;DHT22;6207;49.308;7.336;2022-12-18T04:22:42;-11.20;1.00
12289;DHT22;6207;49.308;7.336;2022-12-18T04:25:09;-10.60;1.00
12289;DHT22;6207;49.308;7.336;2022-12-18T04:27:37;-10.80;1.00
12289;DHT22;6207;49.308;7.336;2022-12-18T04:30:04;-11.20;1.00
12289;DHT22;6207;49.308;7.336;2022-12-18T04:32:33;-11.20;1.00
12289;DHT22;6207;49.308;7.336;2022-12-18T04:35:00;-11.30;1.00
12289;DHT22;6207;49.308;7.336;2022-12-18T04:37:26;-11.30;1.00
12289;DHT22;6207;49.308;7.336;2022-12-18T04:39:53;-10.90;1.00
12289;DHT22;6207;49.308;7.336;2022-12-18T04:42:20;-11.30;1.00
12289;DHT22;6207;49.308;7.336;2022-12-18T04:44:47;-11.30;1.00
12289;DHT22;6207;49.308;7.336;2022-12-18T04:47:13;-10.70;1.00
12289;DHT22;6207;49.308;7.336;2022-12-18T04:49:40;-11.30;1.00
12289;DHT22;6207;49.308;7.336;2022-12-18T04:52:07;-11.30;1.00
12289;DHT22;6207;49.308;7.336;2022-12-18T04:54:34;-11.30;1.00
12289;DHT22;6207;49.308;7.336;2022-12-18T04:57:01;-11.30;1.00
12289;DHT22;6207;49.308;7.336;2022-12-18T04:59:27;-11.30;1.00
12289;DHT22;6207;49.308;7.336;2022-12-18T05:01:54;-11.40;1.00
12289;DHT22;6207;49.308;7.336;2022-12-18T05:04:21;-11.40;1.00
12289;DHT22;6207;49.308;7.336;2022-12-18T05:06:48;-11.40;1.00
12289;DHT22;6207;49.308;7.336;2022-12-18T05:09:14;-11.40;1.00
12289;DHT22;6207;49.308;7.336;2022-12-18T05:11:42;-11.50;1.00
12289;DHT22;6207;49.308;7.336;2022-12-18T05:14:09;-11.50;1.00
12289;DHT22;6207;49.308;7.336;2022-12-18T05:16:35;-11.50;1.00
12289;DHT22;6207;49.308;7.336;2022-12-18T05:19:02;-11.40;1.00
12289;DHT22;6207;49.308;7.336;2022-12-18T05:21:29;-11.20;1.00
12289;DHT22;6207;49.308;7.336;2022-12-18T05:23:56;-11.50;1.00
12289;DHT22;6207;49.308;7.336;2022-12-18T05:26:23;-10.40;1.00
12289;DHT22;6207;49.308;7.336;2022-12-18T05:28:49;-11.50;1.00
12289;DHT22;6207;49.308;7.336;2022-12-18T05:31:16;-11.30;1.00
12289;DHT22;6207;49.308;7.336;2022-12-18T05:33:43;-11.60;1.00
12289;DHT22;6207;49.308;7.336;2022-12-18T05:36:10;-11.60;1.00
12289;DHT22;6207;49.308;7.336;2022-12-18T05:38:38;-11.60;1.00
12289;DHT22;6207;49.308;7.336;2022-12-18T05:41:05;-11.60;1.00
12289;DHT22;6207;49.308;7.336;2022-12-18T05:43:37;-11.70;1.00
12289;DHT22;6207;49.308;7.336;2022-12-18T05:46:11;-11.60;1.00
12289;DHT22;6207;49.308;7.336;2022-12-18T05:48:38;-11.60;1.00
12289;DHT22;6207;49.308;7.336;2022-12-18T05:51:11;-11.60;1.00
12289;DHT22;6207;49.308;7.336;2022-12-18T05:53:38;-11.60;1.00
12289;DHT22;6207;49.308;7.336;2022-12-18T05:56:08;-11.60;1.00
12289;DHT22;6207;49.308;7.336;2022-12-18T05:58:36;-11.60;1.00
12289;DHT22;6207;49.308;7.336;2022-12-18T06:01:12;-11.60;1.00
12289;DHT22;6207;49.308;7.336;2022-12-18T06:03:38;-11.70;1.00
12289;DHT22;6207;49.308;7.336;2022-12-18T06:06:21;-11.70;1.00
12289;DHT22;6207;49.308;7.336;2022-12-18T06:08:49;-11.60;1.00
12289;DHT22;6207;49.308;7.336;2022-12-18T06:11:24;-11.50;1.00
12289;DHT22;6207;49.308;7.336;2022-12-18T06:13:55;-11.50;1.00
12289;DHT22;6207;49.308;7.336;2022-12-18T06:16:25;-11.40;1.00
12289;DHT22;6207;49.308;7.336;2022-12-18T06:18:52;-11.50;1.00
12289;DHT22;6207;49.308;7.336;2022-12-18T06:21:19;-11.50;1.00
12289;DHT22;6207;49.308;7.336;2022-12-18T06:23:46;-11.60;1.00
12289;DHT22;6207;49.308;7.336;2022-12-18T06:26:13;-11.60;1.00
12289;DHT22;6207;49.308;7.336;2022-12-18T06:28:40;-11.40;1.00
12289;DHT22;6207;49.308;7.336;2022-12-18T06:31:08;-11.60;1.00
12289;DHT22;6207;49.308;7.336;2022-12-18T06:33:35;-11.70;1.00
12289;DHT22;6207;49.308;7.336;2022-12-18T06:36:08;-11.70;1.00
12289;DHT22;6207;49.308;7.336;2022-12-18T06:38:37;-11.70;1.00
12289;DHT22;6207;49.308;7.336;2022-12-18T06:41:10;-11.80;1.00
12289;DHT22;6207;49.308;7.336;2022-12-18T06:43:37;-11.80;1.00
12289;DHT22;6207;49.308;7.336;2022-12-18T06:46:05;-11.80;1.00
12289;DHT22;6207;49.308;7.336;2022-12-18T06:48:32;-11.80;1.00
12289;DHT22;6207;49.308;7.336;2022-12-18T06:50:59;-11.80;1.00
12289;DHT22;6207;49.308;7.336;2022-12-18T06:53:26;-11.80;1.00
12289;DHT22;6207;49.308;7.336;2022-12-18T06:56:00;-11.80;1.00
12289;DHT22;6207;49.308;7.336;2022-12-18T06:58:34;-11.80;1.00
12289;DHT22;6207;49.308;7.336;2022-12-18T07:01:02;-11.80;1.00
12289;DHT22;6207;49.308;7.336;2022-12-18T07:03:30;-11.80;1.00
12289;DHT22;6207;49.308;7.336;2022-12-18T07:05:57;-11.70;1.00
12289;DHT22;6207;49.308;7.336;2022-12-18T07:08:24;-11.60;1.00
12289;DHT22;6207;49.308;7.336;2022-12-18T07:10:51;-11.70;1.00
12289;DHT22;6207;49.308;7.336;2022-12-18T07:13:22;-11.70;1.00
12289;DHT22;6207;49.308;7.336;2022-12-18T07:15:49;-11.70;1.00
12289;DHT22;6207;49.308;7.336;2022-12-18T07:18:16;-11.70;1.00
12289;DHT22;6207;49.308;7.336;2022-12-18T07:20:42;-11.70;1.00
12289;DHT22;6207;49.308;7.336;2022-12-18T07:23:09;-11.70;1.00
12289;DHT22;6207;49.308;7.336;2022-12-18T07:25:36;-11.60;1.00
12289;DHT22;6207;49.308;7.336;2022-12-18T07:28:04;-11.60;1.00
12289;DHT22;6207;49.308;7.336;2022-12-18T07:30:31;-11.60;1.00
12289;DHT22;6207;49.308;7.336;2022-12-18T07:32:58;-11.50;1.00
12289;DHT22;6207;49.308;7.336;2022-12-18T07:35:24;-11.40;1.00
12289;DHT22;6207;49.308;7.336;2022-12-18T07:37:51;-11.50;1.00
12289;DHT22;6207;49.308;7.336;2022-12-18T07:40:18;-11.40;1.00
12289;DHT22;6207;49.308;7.336;2022-12-18T07:42:45;-11.40;1.00
12289;DHT22;6207;49.308;7.336;2022-12-18T07:45:11;-11.40;1.00
12289;DHT22;6207;49.308;7.336;2022-12-18T07:47:38;-11.40;1.00
12289;DHT22;6207;49.308;7.336;2022-12-18T07:50:07;-11.30;1.00
12289;DHT22;6207;49.308;7.336;2022-12-18T07:52:34;-11.20;1.00
12289;DHT22;6207;49.308;7.336;2022-12-18T07:55:01;-11.10;1.00
12289;DHT22;6207;49.308;7.336;2022-12-18T07:57:28;-11.00;1.00
12289;DHT22;6207;49.308;7.336;2022-12-18T08:00:15;-11.00;1.00
12289;DHT22;6207;49.308;7.336;2022-12-18T08:02:41;-11.00;1.00
12289;DHT22;6207;49.308;7.336;2022-12-18T08:05:08;-10.90;1.00
12289;DHT22;6207;49.308;7.336;2022-12-18T08:07:35;-10.80;1.00
12289;DHT22;6207;49.308;7.336;2022-12-18T08:10:02;-10.70;1.00
12289;DHT22;6207;49.308;7.336;2022-12-18T08:12:29;-10.60;1.00
12289;DHT22;6207;49.308;7.336;2022-12-18T08:14:56;-10.50;1.00
12289;DHT22;6207;49.308;7.336;2022-12-18T08:17:23;-10.40;1.00
12289;DHT22;6207;49.308;7.336;2022-12-18T08:19:49;-10.20;1.00
12289;DHT22;6207;49.308;7.336;2022-12-18T08:22:16;-10.10;1.00
12289;DHT22;6207;49.308;7.336;2022-12-18T08:24:43;-9.80;1.00
12289;DHT22;6207;49.308;7.336;2022-12-18T08:27:09;-9.80;1.00
12289;DHT22;6207;49.308;7.336;2022-12-18T08:29:55;-9.70;1.00
12289;DHT22;6207;49.308;7.336;2022-12-18T08:32:23;-9.60;1.00
12289;DHT22;6207;49.308;7.336;2022-12-18T08:34:50;-9.50;1.00
12289;DHT22;6207;49.308;7.336;2022-12-18T08:37:17;-9.40;1.00
12289;DHT22;6207;49.308;7.336;2022-12-18T08:39:44;-9.40;1.00
12289;DHT22;6207;49.308;7.336;2022-12-18T08:42:11;-9.30;1.00
12289;DHT22;6207;49.308;7.336;2022-12-18T08:44:56;-9.10;1.00
12289;DHT22;6207;49.308;7.336;2022-12-18T08:47:23;-9.00;1.00
12289;DHT22;6207;49.308;7.336;2022-12-18T08:49:50;-9.00;1.00
12289;DHT22;6207;49.308;7.336;2022-12-18T08:52:17;-9.10;1.00
12289;DHT22;6207;49.308;7.336;2022-12-18T08:54:44;-9.00;1.00
12289;DHT22;6207;49.308;7.336;2022-12-18T08:57:11;-8.90;1.00
12289;DHT22;6207;49.308;7.336;2022-12-18T08:59:37;-9.00;1.00
12289;DHT22;6207;49.308;7.336;2022-12-18T09:02:04;-9.10;1.00
12289;DHT22;6207;49.308;7.336;2022-12-18T09:04:31;-9.00;1.00
12289;DHT22;6207;49.308;7.336;2022-12-18T09:06:58;-9.10;1.00
12289;DHT22;6207;49.308;7.336;2022-12-18T09:09:25;-9.20;1.00
12289;DHT22;6207;49.308;7.336;2022-12-18T09:11:52;-9.20;1.00
12289;DHT22;6207;49.308;7.336;2022-12-18T09:14:18;-9.10;1.00
12289;DHT22;6207;49.308;7.336;2022-12-18T09:16:45;-9.00;1.00
12289;DHT22;6207;49.308;7.336;2022-12-18T09:19:13;-8.80;1.00
12289;DHT22;6207;49.308;7.336;2022-12-18T09:21:40;-8.60;1.00
12289;DHT22;6207;49.308;7.336;2022-12-18T09:24:14;-8.30;1.00
12289;DHT22;6207;49.308;7.336;2022-12-18T09:26:41;-8.30;1.00
12289;DHT22;6207;49.308;7.336;2022-12-18T09:29:12;-8.40;1.00
12289;DHT22;6207;49.308;7.336;2022-12-18T09:31:39;-8.40;1.00
12289;DHT22;6207;49.308;7.336;2022-12-18T09:34:06;-8.50;1.00
12289;DHT22;6207;49.308;7.336;2022-12-18T09:36:33;-8.50;1.00
12289;DHT22;6207;49.308;7.336;2022-12-18T09:39:00;-8.60;1.00
12289;DHT22;6207;49.308;7.336;2022-12-18T09:46:45;-8.20;1.00
12289;DHT22;6207;49.308;7.336;2022-12-18T09:49:17;-8.10;1.00
12289;DHT22;6207;49.308;7.336;2022-12-18T09:54:40;-7.80;1.00
12289;DHT22;6207;49.308;7.336;2022-12-18T09:57:18;-7.70;1.00
12289;DHT22;6207;49.308;7.336;2022-12-18T09:59:51;-7.50;1.00
12289;DHT22;6207;49.308;7.336;2022-12-18T10:02:23;-7.40;1.00
12289;DHT22;6207;49.308;7.336;2022-12-18T10:05:10;-7.40;1.00
12289;DHT22;6207;49.308;7.336;2022-12-18T10:08:43;-7.30;1.00
12289;DHT22;6207;49.308;7.336;2022-12-18T10:10:52;-7.00;1.00
12289;DHT22;6207;49.308;7.336;2022-12-18T10:13:29;-6.80;1.00
12289;DHT22;6207;49.308;7.336;2022-12-18T10:16:15;-6.80;1.00
12289;DHT22;6207;49.308;7.336;2022-12-18T10:27:13;-6.50;1.00
12289;DHT22;6207;49.308;7.336;2022-12-18T10:29:42;-6.60;1.00
12289;DHT22;6207;49.308;7.336;2022-12-18T10:32:16;-6.70;1.00
12289;DHT22;6207;49.308;7.336;2022-12-18T10:34:47;-6.60;21.00
12289;DHT22;6207;49.308;7.336;2022-12-18T10:37:17;-6.50;3.80
12289;DHT22;6207;49.308;7.336;2022-12-18T10:39:46;-5.70;1.30
12289;DHT22;6207;49.308;7.336;2022-12-18T10:42:18;-6.20;1.00
12289;DHT22;6207;49.308;7.336;2022-12-18T10:44:45;-6.50;1.00
12289;DHT22;6207;49.308;7.336;2022-12-18T10:47:15;-6.50;6.30
12289;DHT22;6207;49.308;7.336;2022-12-18T10:49:49;-6.50;5.10
12289;DHT22;6207;49.308;7.336;2022-12-18T10:52:21;-6.30;46.70
12289;DHT22;6207;49.308;7.336;2022-12-18T10:55:13;-6.20;67.20
12289;DHT22;6207;49.308;7.336;2022-12-18T10:57:43;-6.20;1.00
12289;DHT22;6207;49.308;7.336;2022-12-18T11:00:26;-6.20;8.40
12289;DHT22;6207;49.308;7.336;2022-12-18T11:02:54;-6.10;29.30
12289;DHT22;6207;49.308;7.336;2022-12-18T11:07:54;-5.80;28.20
12289;DHT22;6207;49.308;7.336;2022-12-18T11:10:32;-5.70;1.00
12289;DHT22;6207;49.308;7.336;2022-12-18T11:13:17;-5.70;1.00
12289;DHT22;6207;49.308;7.336;2022-12-18T11:15:45;-5.80;1.00
12289;DHT22;6207;49.308;7.336;2022-12-18T11:18:28;-5.90;1.00
12289;DHT22;6207;49.308;7.336;2022-12-18T11:21:08;-5.90;4.00
12289;DHT22;6207;49.308;7.336;2022-12-18T11:23:37;-5.80;1.00
12289;DHT22;6207;49.308;7.336;2022-12-18T11:26:10;-4.80;1.00
12289;DHT22;6207;49.308;7.336;2022-12-18T11:31:27;-5.50;1.00
12289;DHT22;6207;49.308;7.336;2022-12-18T11:34:15;-5.50;1.00
12289;DHT22;6207;49.308;7.336;2022-12-18T11:37:00;-5.50;1.00
12289;DHT22;6207;49.308;7.336;2022-12-18T11:39:40;-5.70;1.00
12289;DHT22;6207;49.308;7.336;2022-12-18T11:42:17;-5.60;1.00
12289;DHT22;6207;49.308;7.336;2022-12-18T11:44:55;-5.40;1.00
12289;DHT22;6207;49.308;7.336;2022-12-18T11:47:27;-4.90;1.00
12289;DHT22;6207;49.308;7.336;2022-12-18T11:50:00;-5.30;1.00
12289;DHT22;6207;49.308;7.336;2022-12-18T11:52:33;-5.10;1.00
12289;DHT22;6207;49.308;7.336;2022-12-18T11:55:11;-5.20;1.00
12289;DHT22;6207;49.308;7.336;2022-12-18T12:04:15;-5.30;1.00
12289;DHT22;6207;49.308;7.336;2022-12-18T12:09:38;-5.10;1.00
12289;DHT22;6207;49.308;7.336;2022-12-18T12:12:23;-5.10;1.00
12289;DHT22;6207;49.308;7.336;2022-12-18T12:23:05;-5.00;1.00
12289;DHT22;6207;49.308;7.336;2022-12-18T12:25:57;-4.90;1.00
12289;DHT22;6207;49.308;7.336;2022-12-18T12:31:25;-3.90;1.00
12289;DHT22;6207;49.308;7.336;2022-12-18T12:34:17;-5.10;1.00
12289;DHT22;6207;49.308;7.336;2022-12-18T12:36:57;-4.90;1.00
12289;DHT22;6207;49.308;7.336;2022-12-18T12:39:31;-4.10;1.00
12289;DHT22;6207;49.308;7.336;2022-12-18T12:41:59;-4.80;1.00
12289;DHT22;6207;49.308;7.336;2022-12-18T12:44:58;-4.10;1.00
12289;DHT22;6207;49.308;7.336;2022-12-18T12:47:32;-4.40;1.00
12289;DHT22;6207;49.308;7.336;2022-12-18T12:50:03;-3.80;1.00
12289;DHT22;6207;49.308;7.336;2022-12-18T12:52:37;-4.50;1.00
12289;DHT22;6207;49.308;7.336;2022-12-18T12:55:15;-4.50;1.00
12289;DHT22;6207;49.308;7.336;2022-12-18T12:58:18;-3.80;1.00
12289;DHT22;6207;49.308;7.336;2022-12-18T13:01:12;-4.40;1.00
12289;DHT22;6207;49.308;7.336;2022-12-18T13:06:50;-4.10;1.00
12289;DHT22;6207;49.308;7.336;2022-12-18T13:09:21;-4.00;1.00
12289;DHT22;6207;49.308;7.336;2022-12-18T13:11:48;-3.90;1.00
12289;DHT22;6207;49.308;7.336;2022-12-18T13:14:35;-4.00;1.00
12289;DHT22;6207;49.308;7.336;2022-12-18T13:19:49;-3.80;1.00
12289;DHT22;6207;49.308;7.336;2022-12-18T13:22:37;-3.90;1.00
12289;DHT22;6207;49.308;7.336;2022-12-18T13:25:37;-3.70;1.00
12289;DHT22;6207;49.308;7.336;2022-12-18T13:30:44;-3.10;1.00
12289;DHT22;6207;49.308;7.336;2022-12-18T13:38:38;-3.50;1.00
12289;DHT22;6207;49.308;7.336;2022-12-18T13:43:48;-3.10;1.00
12289;DHT22;6207;49.308;7.336;2022-12-18T13:46:29;-3.50;1.00
12289;DHT22;6207;49.308;7.336;2022-12-18T13:51:31;-3.40;1.00
12289;DHT22;6207;49.308;7.336;2022-12-18T13:56:50;-3.50;1.00
12289;DHT22;6207;49.308;7.336;2022-12-18T13:59:26;-3.40;1.00
12289;DHT22;6207;49.308;7.336;2022-12-18T14:02:01;-3.50;1.00
12289;DHT22;6207;49.308;7.336;2022-12-18T14:04:34;-3.50;1.00
12289;DHT22;6207;49.308;7.336;2022-12-18T14:07:07;-3.50;1.00
12289;DHT22;6207;49.308;7.336;2022-12-18T14:09:44;-2.90;1.00
12289;DHT22;6207;49.308;7.336;2022-12-18T14:12:22;-3.60;1.00
12289;DHT22;6207;49.308;7.336;2022-12-18T14:20:57;-3.50;1.00
12289;DHT22;6207;49.308;7.336;2022-12-18T14:23:39;-3.50;1.00
12289;DHT22;6207;49.308;7.336;2022-12-18T14:26:27;-3.40;1.00
12289;DHT22;6207;49.308;7.336;2022-12-18T14:28:57;-3.60;1.00
12289;DHT22;6207;49.308;7.336;2022-12-18T14:31:26;-2.90;1.00
12289;DHT22;6207;49.308;7.336;2022-12-18T14:33:53;-3.50;1.00
12289;DHT22;6207;49.308;7.336;2022-12-18T14:36:23;-3.60;1.00
12289;DHT22;6207;49.308;7.336;2022-12-18T14:38:54;-2.80;1.00
12289;DHT22;6207;49.308;7.336;2022-12-18T14:41:22;-3.00;1.00
12289;DHT22;6207;49.308;7.336;2022-12-18T14:43:51;-3.60;1.00
12289;DHT22;6207;49.308;7.336;2022-12-18T14:46:36;-3.60;1.00
12289;DHT22;6207;49.308;7.336;2022-12-18T14:49:33;-3.60;1.00
12289;DHT22;6207;49.308;7.336;2022-12-18T14:52:06;-3.50;1.00
12289;DHT22;6207;49.308;7.336;2022-12-18T14:54:46;-3.70;1.00
12289;DHT22;6207;49.308;7.336;2022-12-18T14:57:22;-3.60;1.00
12289;DHT22;6207;49.308;7.336;2022-12-18T14:59:51;-3.60;1.00
12289;DHT22;6207;49.308;7.336;2022-12-18T15:02:23;-3.10;1.00
12289;DHT22;6207;49.308;7.336;2022-12-18T15:05:14;-3.20;1.00
12289;DHT22;6207;49.308;7.336;2022-12-18T15:07:53;-3.60;1.00
12289;DHT22;6207;49.308;7.336;2022-12-18T15:10:25;-3.30;1.00
12289;DHT22;6207;49.308;7.336;2022-12-18T15:20:59;-3.80;1.00
12289;DHT22;6207;49.308;7.336;2022-12-18T15:26:16;-3.90;1.00
12289;DHT22;6207;49.308;7.336;2022-12-18T15:28:50;-3.80;1.00
12289;DHT22;6207;49.308;7.336;2022-12-18T15:31:33;-3.90;2.70
12289;DHT22;6207;49.308;7.336;2022-12-18T15:34:19;-3.90;12.30
12289;DHT22;6207;49.308;7.336;2022-12-18T15:36:47;-3.90;1.20
12289;DHT22;6207;49.308;7.336;2022-12-18T15:39:14;-3.90;5.90
12289;DHT22;6207;49.308;7.336;2022-12-18T15:45:17;-3.60;6.10
12289;DHT22;6207;49.308;7.336;2022-12-18T15:47:47;-4.00;1.00
12289;DHT22;6207;49.308;7.336;2022-12-18T15:50:14;-3.90;1.00
12289;DHT22;6207;49.308;7.336;2022-12-18T15:52:44;-3.70;1.00
12289;DHT22;6207;49.308;7.336;2022-12-18T15:55:13;-4.00;2.50
12289;DHT22;6207;49.308;7.336;2022-12-18T15:57:59;-4.00;1.00
12289;DHT22;6207;49.308;7.336;2022-12-18T16:00:26;-3.40;1.00
12289;DHT22;6207;49.308;7.336;2022-12-18T16:02:53;-4.00;1.00
12289;DHT22;6207;49.308;7.336;2022-12-18T16:05:21;-3.90;1.00
12289;DHT22;6207;49.308;7.336;2022-12-18T16:07:49;-4.10;13.80
12289;DHT22;6207;49.308;7.336;2022-12-18T16:10:16;-3.40;15.20
12289;DHT22;6207;49.308;7.336;2022-12-18T16:12:43;-3.90;20.90
12289;DHT22;6207;49.308;7.336;2022-12-18T16:15:12;-3.80;30.40
12289;DHT22;6207;49.308;7.336;2022-12-18T16:17:47;-4.10;23.00
12289;DHT22;6207;49.308;7.336;2022-12-18T16:20:16;-3.40;13.80
12289;DHT22;6207;49.308;7.336;2022-12-18T16:22:45;-4.00;1.00
12289;DHT22;6207;49.308;7.336;2022-12-18T16:27:45;-3.90;1.00
12289;DHT22;6207;49.308;7.336;2022-12-18T16:30:15;-3.90;1.00
12289;DHT22;6207;49.308;7.336;2022-12-18T16:32:43;-4.30;1.00
12289;DHT22;6207;49.308;7.336;2022-12-18T16:35:11;-3.90;1.00
12289;DHT22;6207;49.308;7.336;2022-12-18T16:37:40;-3.40;1.00
12289;DHT22;6207;49.308;7.336;2022-12-18T16:40:08;-3.90;1.00
12289;DHT22;6207;49.308;7.336;2022-12-18T16:42:37;-3.90;1.00
12289;DHT22;6207;49.308;7.336;2022-12-18T16:45:05;-3.60;1.00
12289;DHT22;6207;49.308;7.336;2022-12-18T16:47:33;-3.80;1.00
12289;DHT22;6207;49.308;7.336;2022-12-18T16:50:00;-4.00;1.00
12289;DHT22;6207;49.308;7.336;2022-12-18T16:52:27;-3.80;1.00
12289;DHT22;6207;49.308;7.336;2022-12-18T16:54:55;-3.70;1.00
12289;DHT22;6207;49.308;7.336;2022-12-18T16:57:23;-3.70;1.00
12289;DHT22;6207;49.308;7.336;2022-12-18T16:59:51;-3.90;1.00
12289;DHT22;6207;49.308;7.336;2022-12-18T17:02:20;-2.90;1.00
12289;DHT22;6207;49.308;7.336;2022-12-18T17:04:53;-4.50;1.00
12289;DHT22;6207;49.308;7.336;2022-12-18T17:07:25;-4.00;1.00
12289;DHT22;6207;49.308;7.336;2022-12-18T17:09:54;-3.40;1.00
12289;DHT22;6207;49.308;7.336;2022-12-18T17:12:22;-3.90;1.00
12289;DHT22;6207;49.308;7.336;2022-12-18T17:14:49;-4.00;1.00
12289;DHT22;6207;49.308;7.336;2022-12-18T17:17:17;-3.70;1.00
12289;DHT22;6207;49.308;7.336;2022-12-18T17:19:48;-4.10;1.00
12289;DHT22;6207;49.308;7.336;2022-12-18T17:22:16;-4.10;1.00
12289;DHT22;6207;49.308;7.336;2022-12-18T17:24:43;-4.00;1.00
12289;DHT22;6207;49.308;7.336;2022-12-18T17:27:10;-3.90;1.00
12289;DHT22;6207;49.308;7.336;2022-12-18T17:29:37;-4.40;1.00
12289;DHT22;6207;49.308;7.336;2022-12-18T17:32:12;-4.00;1.00
12289;DHT22;6207;49.308;7.336;2022-12-18T17:34:39;-4.20;1.00
12289;DHT22;6207;49.308;7.336;2022-12-18T17:37:07;-3.80;1.00
12289;DHT22;6207;49.308;7.336;2022-12-18T17:39:34;-3.70;1.00
12289;DHT22;6207;49.308;7.336;2022-12-18T17:42:03;-4.10;1.00
12289;DHT22;6207;49.308;7.336;2022-12-18T17:44:34;-3.40;1.00
12289;DHT22;6207;49.308;7.336;2022-12-18T17:47:02;-4.10;1.00
12289;DHT22;6207;49.308;7.336;2022-12-18T17:49:30;-4.10;1.00
12289;DHT22;6207;49.308;7.336;2022-12-18T17:51:57;-4.10;1.00
12289;DHT22;6207;49.308;7.336;2022-12-18T17:54:28;-4.00;1.00
12289;DHT22;6207;49.308;7.336;2022-12-18T17:56:56;-4.10;1.00
12289;DHT22;6207;49.308;7.336;2022-12-18T17:59:23;-4.10;1.00
12289;DHT22;6207;49.308;7.336;2022-12-18T18:01:51;-3.30;1.00
12289;DHT22;6207;49.308;7.336;2022-12-18T18:04:19;-3.90;1.00
12289;DHT22;6207;49.308;7.336;2022-12-18T18:06:46;-3.40;1.00
12289;DHT22;6207;49.308;7.336;2022-12-18T18:09:13;-3.90;1.00
12289;DHT22;6207;49.308;7.336;2022-12-18T18:11:46;-4.00;1.00
12289;DHT22;6207;49.308;7.336;2022-12-18T18:14:31;-4.00;1.00
12289;DHT22;6207;49.308;7.336;2022-12-18T18:16:59;-3.90;1.00
12289;DHT22;6207;49.308;7.336;2022-12-18T18:19:31;-2.80;1.00
12289;DHT22;6207;49.308;7.336;2022-12-18T18:21:58;-3.30;1.00